createdAt,value
2017-11-14T00:00:06.699Z,1009.84
2017-11-14T00:00:47.247Z,1009.85
2017-11-14T00:01:27.823Z,1009.79
2017-11-14T00:02:08.386Z,1009.86
2017-11-14T00:02:48.917Z,1009.84
2017-11-14T00:03:29.453Z,1009.86
2017-11-14T00:04:10.019Z,1009.79
2017-11-14T00:04:50.607Z,1009.84
2017-11-14T00:05:31.158Z,1009.8
2017-11-14T00:06:11.685Z,1009.83
2017-11-14T00:06:52.248Z,1009.84
2017-11-14T00:07:32.800Z,1009.85
2017-11-14T00:08:13.352Z,1009.86
2017-11-14T00:08:53.891Z,1009.86
2017-11-14T00:09:34.453Z,1009.88
2017-11-14T00:10:14.992Z,1009.91
2017-11-14T00:10:55.523Z,1009.9
2017-11-14T00:11:36.110Z,1009.86
2017-11-14T00:12:16.641Z,1009.91
2017-11-14T00:12:57.174Z,1009.91
2017-11-14T00:13:37.837Z,1009.95
2017-11-14T00:14:18.364Z,1009.93
2017-11-14T00:14:58.897Z,1009.92
2017-11-14T00:15:39.450Z,1009.97
2017-11-14T00:16:19.999Z,1009.96
2017-11-14T00:17:00.550Z,1010
2017-11-14T00:17:41.085Z,1009.99
2017-11-14T00:18:21.633Z,1009.98
2017-11-14T00:19:02.187Z,1010
2017-11-14T00:19:42.697Z,1009.96
2017-11-14T00:20:23.254Z,1010
2017-11-14T00:21:03.797Z,1009.93
2017-11-14T00:21:44.352Z,1009.98
2017-11-14T00:22:24.927Z,1009.95
2017-11-14T00:23:05.412Z,1009.92
2017-11-14T00:23:45.948Z,1010.03
2017-11-14T00:24:26.504Z,1010
2017-11-14T00:25:07.103Z,1009.99
2017-11-14T00:25:47.645Z,1009.98
2017-11-14T00:26:28.593Z,1010.03
2017-11-14T00:27:09.164Z,1009.99
2017-11-14T00:27:49.724Z,1010.07
2017-11-14T00:28:30.261Z,1010.03
2017-11-14T00:29:10.788Z,1010.06
2017-11-14T00:29:51.339Z,1010.05
2017-11-14T00:30:32.769Z,1010.07
2017-11-14T00:31:13.295Z,1010.07
2017-11-14T00:31:53.850Z,1010.1
2017-11-14T00:32:34.388Z,1010.09
2017-11-14T00:33:14.932Z,1010.08
2017-11-14T00:33:55.469Z,1010.09
2017-11-14T00:34:36.029Z,1010.05
2017-11-14T00:35:16.552Z,1010.08
2017-11-14T00:35:57.101Z,1010.05
2017-11-14T00:36:37.635Z,1010.1
2017-11-14T00:37:18.166Z,1010.1
2017-11-14T00:37:58.661Z,1010.13
2017-11-14T00:38:39.204Z,1010.19
2017-11-14T00:39:19.746Z,1010.1
2017-11-14T00:40:00.272Z,1010.14
2017-11-14T00:40:40.831Z,1010.15
2017-11-14T00:41:21.384Z,1010.19
2017-11-14T00:42:01.921Z,1010.17
2017-11-14T00:42:42.487Z,1010.19
2017-11-14T00:43:23.096Z,1010.18
2017-11-14T00:44:03.616Z,1010.23
2017-11-14T00:44:44.169Z,1010.19
2017-11-14T00:45:24.748Z,1010.24
2017-11-14T00:46:05.299Z,1010.21
2017-11-14T00:46:45.866Z,1010.2
2017-11-14T00:47:26.430Z,1010.22
2017-11-14T00:48:06.965Z,1010.26
2017-11-14T00:48:47.525Z,1010.23
2017-11-14T00:49:28.068Z,1010.25
2017-11-14T00:50:08.636Z,1010.25
2017-11-14T00:50:49.162Z,1010.26
2017-11-14T00:51:29.888Z,1010.25
2017-11-14T00:52:10.416Z,1010.28
2017-11-14T00:52:50.954Z,1010.27
2017-11-14T00:53:31.512Z,1010.3
2017-11-14T00:54:12.078Z,1010.29
2017-11-14T00:54:52.649Z,1010.25
2017-11-14T00:55:33.168Z,1010.25
2017-11-14T00:56:13.789Z,1010.28
2017-11-14T00:56:54.370Z,1010.26
2017-11-14T00:57:34.881Z,1010.27
2017-11-14T00:58:15.421Z,1010.26
2017-11-14T00:58:55.960Z,1010.24
2017-11-14T00:59:36.513Z,1010.29
2017-11-14T01:00:17.031Z,1010.27
2017-11-14T01:00:57.601Z,1010.27
2017-11-14T01:01:38.153Z,1010.24
2017-11-14T01:02:18.728Z,1010.33
2017-11-14T01:02:59.265Z,1010.31
2017-11-14T01:03:39.798Z,1010.34
2017-11-14T01:04:20.322Z,1010.32
2017-11-14T01:05:00.871Z,1010.35
2017-11-14T01:05:41.389Z,1010.39
2017-11-14T01:06:21.925Z,1010.35
2017-11-14T01:07:02.452Z,1010.38
2017-11-14T01:07:43.037Z,1010.38
2017-11-14T01:08:23.589Z,1010.45
2017-11-14T01:09:04.133Z,1010.39
2017-11-14T01:09:44.668Z,1010.43
2017-11-14T01:10:25.236Z,1010.4
2017-11-14T01:11:05.751Z,1010.41
2017-11-14T01:11:46.294Z,1010.46
2017-11-14T01:12:26.820Z,1010.44
2017-11-14T01:13:07.384Z,1010.47
2017-11-14T01:13:47.899Z,1010.45
2017-11-14T01:14:28.432Z,1010.49
2017-11-14T01:15:08.988Z,1010.47
2017-11-14T01:15:49.568Z,1010.48
2017-11-14T01:16:30.151Z,1010.52
2017-11-14T01:17:10.710Z,1010.48
2017-11-14T01:17:51.286Z,1010.46
2017-11-14T01:18:31.855Z,1010.42
2017-11-14T01:19:12.366Z,1010.5
2017-11-14T01:19:52.930Z,1010.49
2017-11-14T01:20:33.473Z,1010.51
2017-11-14T01:21:13.994Z,1010.49
2017-11-14T01:21:54.528Z,1010.53
2017-11-14T01:22:35.068Z,1010.5
2017-11-14T01:23:15.605Z,1010.57
2017-11-14T01:23:56.147Z,1010.54
2017-11-14T01:24:36.712Z,1010.54
2017-11-14T01:25:17.266Z,1010.52
2017-11-14T01:25:57.825Z,1010.57
2017-11-14T01:26:38.384Z,1010.6
2017-11-14T01:27:18.925Z,1010.6
2017-11-14T01:27:59.481Z,1010.58
2017-11-14T01:28:40.057Z,1010.57
2017-11-14T01:29:20.544Z,1010.58
2017-11-14T01:30:01.107Z,1010.57
2017-11-14T01:30:41.695Z,1010.57
2017-11-14T01:31:22.165Z,1010.56
2017-11-14T01:32:02.732Z,1010.49
2017-11-14T01:32:43.257Z,1010.57
2017-11-14T01:33:23.794Z,1010.52
2017-11-14T01:34:04.323Z,1010.55
2017-11-14T01:34:44.855Z,1010.54
2017-11-14T01:35:25.418Z,1010.57
2017-11-14T01:36:05.951Z,1010.54
2017-11-14T01:36:46.511Z,1010.57
2017-11-14T01:37:27.033Z,1010.55
2017-11-14T01:38:07.567Z,1010.59
2017-11-14T01:38:48.115Z,1010.59
2017-11-14T01:39:28.640Z,1010.58
2017-11-14T01:40:09.176Z,1010.61
2017-11-14T01:40:49.721Z,1010.57
2017-11-14T01:41:30.265Z,1010.61
2017-11-14T01:42:10.860Z,1010.62
2017-11-14T01:42:51.399Z,1010.58
2017-11-14T01:43:31.921Z,1010.59
2017-11-14T01:44:12.473Z,1010.58
2017-11-14T01:44:53.017Z,1010.6
2017-11-14T01:45:33.570Z,1010.54
2017-11-14T01:46:14.128Z,1010.56
2017-11-14T01:46:54.680Z,1010.57
2017-11-14T01:47:35.221Z,1010.58
2017-11-14T01:48:15.786Z,1010.57
2017-11-14T01:48:56.337Z,1010.61
2017-11-14T01:49:36.933Z,1010.59
2017-11-14T01:50:17.467Z,1010.59
2017-11-14T01:50:57.990Z,1010.6
2017-11-14T01:51:38.553Z,1010.58
2017-11-14T01:52:19.100Z,1010.54
2017-11-14T01:52:59.631Z,1010.57
2017-11-14T01:53:40.196Z,1010.56
2017-11-14T01:54:20.707Z,1010.56
2017-11-14T01:55:01.248Z,1010.54
2017-11-14T01:55:41.789Z,1010.54
2017-11-14T01:56:22.325Z,1010.52
2017-11-14T01:57:02.887Z,1010.55
2017-11-14T01:57:43.442Z,1010.48
2017-11-14T01:58:23.939Z,1010.54
2017-11-14T01:59:04.482Z,1010.52
2017-11-14T01:59:45.023Z,1010.53
2017-11-14T02:00:25.561Z,1010.52
2017-11-14T02:01:06.113Z,1010.53
2017-11-14T02:01:46.681Z,1010.55
2017-11-14T02:02:27.266Z,1010.53
2017-11-14T02:03:07.776Z,1010.51
2017-11-14T02:03:48.320Z,1010.45
2017-11-14T02:04:28.888Z,1010.53
2017-11-14T02:05:09.457Z,1010.5
2017-11-14T02:05:50.013Z,1010.48
2017-11-14T02:06:30.529Z,1010.5
2017-11-14T02:07:11.091Z,1010.45
2017-11-14T02:07:51.621Z,1010.46
2017-11-14T02:08:32.176Z,1010.44
2017-11-14T02:09:12.718Z,1010.44
2017-11-14T02:09:53.208Z,1010.45
2017-11-14T02:10:33.794Z,1010.46
2017-11-14T02:11:14.345Z,1010.44
2017-11-14T02:11:54.894Z,1010.45
2017-11-14T02:12:35.443Z,1010.45
2017-11-14T02:13:15.981Z,1010.46
2017-11-14T02:13:56.543Z,1010.47
2017-11-14T02:14:37.115Z,1010.5
2017-11-14T02:15:17.688Z,1010.5
2017-11-14T02:15:58.224Z,1010.47
2017-11-14T02:16:38.814Z,1010.51
2017-11-14T02:17:19.341Z,1010.44
2017-11-14T02:17:59.889Z,1010.5
2017-11-14T02:18:40.421Z,1010.52
2017-11-14T02:19:20.972Z,1010.55
2017-11-14T02:20:01.517Z,1010.55
2017-11-14T02:20:42.027Z,1010.56
2017-11-14T02:21:22.619Z,1010.58
2017-11-14T02:22:03.153Z,1010.57
2017-11-14T02:22:43.697Z,1010.6
2017-11-14T02:23:24.280Z,1010.59
2017-11-14T02:24:04.800Z,1010.61
2017-11-14T02:24:45.346Z,1010.62
2017-11-14T02:25:25.893Z,1010.65
2017-11-14T02:26:06.429Z,1010.67
2017-11-14T02:26:46.977Z,1010.72
2017-11-14T02:27:27.549Z,1010.67
2017-11-14T02:28:08.118Z,1010.65
2017-11-14T02:28:48.642Z,1010.66
2017-11-14T02:29:29.201Z,1010.67
2017-11-14T02:30:09.756Z,1010.7
2017-11-14T02:30:50.318Z,1010.66
2017-11-14T02:31:30.874Z,1010.7
2017-11-14T02:32:11.424Z,1010.74
2017-11-14T02:32:52.003Z,1010.67
2017-11-14T02:33:32.542Z,1010.64
2017-11-14T02:34:13.210Z,1010.67
2017-11-14T02:34:53.745Z,1010.72
2017-11-14T02:35:34.236Z,1010.73
2017-11-14T02:36:14.763Z,1010.69
2017-11-14T02:36:55.304Z,1010.72
2017-11-14T02:37:35.874Z,1010.74
2017-11-14T02:38:16.429Z,1010.77
2017-11-14T02:38:56.910Z,1010.82
2017-11-14T02:39:37.467Z,1010.82
2017-11-14T02:40:18.018Z,1010.82
2017-11-14T02:40:58.633Z,1010.81
2017-11-14T02:41:39.215Z,1010.79
2017-11-14T02:42:19.762Z,1010.76
2017-11-14T02:43:00.302Z,1010.8
2017-11-14T02:43:40.848Z,1010.85
2017-11-14T02:44:21.374Z,1010.85
2017-11-14T02:45:01.898Z,1010.84
2017-11-14T02:45:42.454Z,1010.85
2017-11-14T02:46:23.005Z,1010.85
2017-11-14T02:47:03.534Z,1010.86
2017-11-14T02:47:44.103Z,1010.89
2017-11-14T02:48:24.627Z,1010.85
2017-11-14T02:49:05.156Z,1010.9
2017-11-14T02:49:45.704Z,1010.84
2017-11-14T02:50:26.226Z,1010.87
2017-11-14T02:51:06.797Z,1010.9
2017-11-14T02:51:47.352Z,1010.91
2017-11-14T02:52:27.889Z,1010.86
2017-11-14T02:53:08.416Z,1010.94
2017-11-14T02:53:48.997Z,1010.89
2017-11-14T02:54:29.544Z,1010.92
2017-11-14T02:55:10.119Z,1010.94
2017-11-14T02:55:50.670Z,1010.92
2017-11-14T02:56:31.207Z,1010.91
2017-11-14T02:57:11.765Z,1010.89
2017-11-14T02:57:52.337Z,1010.91
2017-11-14T02:58:32.881Z,1010.88
2017-11-14T02:59:13.457Z,1010.91
2017-11-14T02:59:54.042Z,1010.88
2017-11-14T03:00:34.585Z,1010.87
2017-11-14T03:01:15.089Z,1010.88
2017-11-14T03:01:55.636Z,1010.94
2017-11-14T03:02:36.197Z,1010.92
2017-11-14T03:03:16.750Z,1010.92
2017-11-14T03:03:57.320Z,1010.94
2017-11-14T03:04:37.848Z,1010.92
2017-11-14T03:05:18.389Z,1010.98
2017-11-14T03:05:58.937Z,1010.94
2017-11-14T03:06:39.491Z,1010.91
2017-11-14T03:07:20.097Z,1010.95
2017-11-14T03:08:00.642Z,1010.97
2017-11-14T03:08:41.179Z,1010.98
2017-11-14T03:09:21.738Z,1010.98
2017-11-14T03:10:02.280Z,1010.95
2017-11-14T03:10:42.810Z,1010.94
2017-11-14T03:11:23.383Z,1010.96
2017-11-14T03:12:03.903Z,1010.94
2017-11-14T03:12:44.509Z,1010.95
2017-11-14T03:13:25.070Z,1010.96
2017-11-14T03:14:05.621Z,1010.94
2017-11-14T03:14:46.174Z,1010.92
2017-11-14T03:15:26.699Z,1010.93
2017-11-14T03:16:07.246Z,1010.97
2017-11-14T03:16:47.783Z,1010.96
2017-11-14T03:17:28.344Z,1010.95
2017-11-14T03:18:08.902Z,1010.99
2017-11-14T03:18:49.441Z,1010.98
2017-11-14T03:19:30.011Z,1010.94
2017-11-14T03:20:10.532Z,1010.96
2017-11-14T03:20:51.053Z,1010.96
2017-11-14T03:21:31.639Z,1010.95
2017-11-14T03:22:12.157Z,1011.01
2017-11-14T03:22:52.726Z,1011.02
2017-11-14T03:23:33.275Z,1011.03
2017-11-14T03:24:13.818Z,1011
2017-11-14T03:24:54.361Z,1011.01
2017-11-14T03:25:34.956Z,1011.02
2017-11-14T03:26:15.522Z,1011.03
2017-11-14T03:26:56.068Z,1011.05
2017-11-14T03:27:36.616Z,1011.06
2017-11-14T03:28:17.150Z,1011.04
2017-11-14T03:28:57.705Z,1010.99
2017-11-14T03:29:38.240Z,1011.07
2017-11-14T03:30:18.785Z,1011
2017-11-14T03:30:59.314Z,1011.02
2017-11-14T03:31:39.859Z,1011.05
2017-11-14T03:32:20.419Z,1011.04
2017-11-14T03:33:00.971Z,1011.04
2017-11-14T03:33:41.532Z,1011.01
2017-11-14T03:34:22.064Z,1011.05
2017-11-14T03:35:02.592Z,1011.08
2017-11-14T03:35:43.118Z,1011.06
2017-11-14T03:36:23.735Z,1011.06
2017-11-14T03:37:04.266Z,1011.11
2017-11-14T03:37:44.778Z,1011.04
2017-11-14T03:38:25.355Z,1011.06
2017-11-14T03:39:05.905Z,1011.1
2017-11-14T03:39:46.470Z,1011.1
2017-11-14T03:40:26.976Z,1011.15
2017-11-14T03:41:07.481Z,1011.1
2017-11-14T03:41:48.033Z,1011.15
2017-11-14T03:42:28.593Z,1011.16
2017-11-14T03:43:09.118Z,1011.18
2017-11-14T03:43:49.738Z,1011.21
2017-11-14T03:44:30.391Z,1011.18
2017-11-14T03:45:11.003Z,1011.15
2017-11-14T03:45:51.551Z,1011.15
2017-11-14T03:46:32.102Z,1011.15
2017-11-14T03:47:12.659Z,1011.14
2017-11-14T03:47:53.206Z,1011.17
2017-11-14T03:48:33.755Z,1011.19
2017-11-14T03:49:14.305Z,1011.2
2017-11-14T03:49:54.812Z,1011.14
2017-11-14T03:50:35.372Z,1011.15
2017-11-14T03:51:15.898Z,1011.14
2017-11-14T03:51:56.451Z,1011.17
2017-11-14T03:52:36.994Z,1011.15
2017-11-14T03:53:17.540Z,1011.17
2017-11-14T03:53:58.065Z,1011.12
2017-11-14T03:54:40.475Z,1011.15
2017-11-14T03:55:21.034Z,1011.12
2017-11-14T03:56:01.538Z,1011.13
2017-11-14T03:56:42.096Z,1011.15
2017-11-14T03:57:22.641Z,1011.15
2017-11-14T03:58:03.190Z,1011.17
2017-11-14T03:58:46.595Z,1011.18
2017-11-14T03:59:27.148Z,1011.23
2017-11-14T04:00:07.713Z,1011.21
2017-11-14T04:00:48.249Z,1011.24
2017-11-14T04:01:28.797Z,1011.22
2017-11-14T04:02:09.352Z,1011.28
2017-11-14T04:02:49.872Z,1011.26
2017-11-14T04:03:30.438Z,1011.27
2017-11-14T04:04:10.986Z,1011.25
2017-11-14T04:04:51.528Z,1011.25
2017-11-14T04:05:32.099Z,1011.29
2017-11-14T04:06:12.619Z,1011.31
2017-11-14T04:06:53.169Z,1011.24
2017-11-14T04:07:33.698Z,1011.27
2017-11-14T04:08:14.231Z,1011.26
2017-11-14T04:08:54.786Z,1011.22
2017-11-14T04:09:35.321Z,1011.22
2017-11-14T04:10:15.901Z,1011.29
2017-11-14T04:10:56.467Z,1011.3
2017-11-14T04:11:36.978Z,1011.29
2017-11-14T04:12:17.523Z,1011.33
2017-11-14T04:12:58.069Z,1011.28
2017-11-14T04:13:38.621Z,1011.36
2017-11-14T04:14:19.180Z,1011.29
2017-11-14T04:14:59.741Z,1011.3
2017-11-14T04:15:40.332Z,1011.34
2017-11-14T04:16:20.833Z,1011.34
2017-11-14T04:17:01.390Z,1011.3
2017-11-14T04:17:41.963Z,1011.3
2017-11-14T04:18:22.502Z,1011.32
2017-11-14T04:19:03.034Z,1011.3
2017-11-14T04:19:43.583Z,1011.28
2017-11-14T04:20:24.136Z,1011.34
2017-11-14T04:21:04.664Z,1011.31
2017-11-14T04:21:45.214Z,1011.27
2017-11-14T04:22:25.801Z,1011.33
2017-11-14T04:23:06.363Z,1011.28
2017-11-14T04:23:46.918Z,1011.29
2017-11-14T04:24:27.501Z,1011.31
2017-11-14T04:25:08.079Z,1011.29
2017-11-14T04:25:48.612Z,1011.28
2017-11-14T04:26:29.144Z,1011.32
2017-11-14T04:27:09.687Z,1011.32
2017-11-14T04:27:50.248Z,1011.29
2017-11-14T04:28:30.812Z,1011.33
2017-11-14T04:29:11.342Z,1011.34
2017-11-14T04:29:51.889Z,1011.36
2017-11-14T04:30:32.450Z,1011.33
2017-11-14T04:31:13.002Z,1011.33
2017-11-14T04:31:53.549Z,1011.33
2017-11-14T04:32:34.113Z,1011.38
2017-11-14T04:33:14.684Z,1011.37
2017-11-14T04:33:55.322Z,1011.39
2017-11-14T04:34:35.848Z,1011.42
2017-11-14T04:35:16.415Z,1011.44
2017-11-14T04:35:56.954Z,1011.42
2017-11-14T04:36:37.521Z,1011.44
2017-11-14T04:37:18.085Z,1011.38
2017-11-14T04:37:58.613Z,1011.42
2017-11-14T04:38:39.186Z,1011.42
2017-11-14T04:39:19.678Z,1011.41
2017-11-14T04:40:00.263Z,1011.48
2017-11-14T04:40:40.845Z,1011.46
2017-11-14T04:41:22.390Z,1011.46
2017-11-14T04:42:02.871Z,1011.48
2017-11-14T04:42:43.391Z,1011.5
2017-11-14T04:43:23.952Z,1011.46
2017-11-14T04:44:04.503Z,1011.51
2017-11-14T04:44:45.041Z,1011.44
2017-11-14T04:45:25.616Z,1011.47
2017-11-14T04:46:06.173Z,1011.48
2017-11-14T04:46:46.702Z,1011.5
2017-11-14T04:47:27.254Z,1011.49
2017-11-14T04:48:07.807Z,1011.48
2017-11-14T04:48:48.355Z,1011.47
2017-11-14T04:49:28.906Z,1011.48
2017-11-14T04:50:09.719Z,1011.49
2017-11-14T04:50:50.265Z,1011.49
2017-11-14T04:51:30.814Z,1011.48
2017-11-14T04:52:11.364Z,1011.5
2017-11-14T04:52:51.914Z,1011.52
2017-11-14T04:53:32.467Z,1011.51
2017-11-14T04:54:13.031Z,1011.49
2017-11-14T04:54:53.619Z,1011.51
2017-11-14T04:55:34.223Z,1011.5
2017-11-14T04:56:14.729Z,1011.55
2017-11-14T04:56:55.278Z,1011.53
2017-11-14T04:57:35.825Z,1011.49
2017-11-14T04:58:16.363Z,1011.52
2017-11-14T04:58:56.925Z,1011.48
2017-11-14T04:59:37.456Z,1011.51
2017-11-14T05:00:18.001Z,1011.48
2017-11-14T05:00:58.535Z,1011.5
2017-11-14T05:01:39.077Z,1011.54
2017-11-14T05:02:19.622Z,1011.55
2017-11-14T05:03:00.170Z,1011.56
2017-11-14T05:03:40.714Z,1011.55
2017-11-14T05:04:21.272Z,1011.58
2017-11-14T05:05:01.832Z,1011.58
2017-11-14T05:05:42.353Z,1011.59
2017-11-14T05:06:22.910Z,1011.59
2017-11-14T05:07:03.458Z,1011.63
2017-11-14T05:07:43.998Z,1011.58
2017-11-14T05:08:24.549Z,1011.55
2017-11-14T05:09:05.084Z,1011.63
2017-11-14T05:09:45.608Z,1011.6
2017-11-14T05:10:26.156Z,1011.63
2017-11-14T05:11:06.681Z,1011.63
2017-11-14T05:11:47.220Z,1011.61
2017-11-14T05:12:27.760Z,1011.62
2017-11-14T05:13:08.276Z,1011.63
2017-11-14T05:13:48.807Z,1011.61
2017-11-14T05:14:29.329Z,1011.62
2017-11-14T05:16:42.117Z,1011.64
2017-11-14T05:17:22.698Z,1011.67
2017-11-14T05:18:03.249Z,1011.65
2017-11-14T05:18:43.801Z,1011.66
2017-11-14T05:19:24.367Z,1011.72
2017-11-14T05:20:04.912Z,1011.69
2017-11-14T05:20:45.474Z,1011.72
2017-11-14T05:21:26.024Z,1011.69
2017-11-14T05:22:06.667Z,1011.71
2017-11-14T05:22:47.213Z,1011.73
2017-11-14T05:23:27.764Z,1011.78
2017-11-14T05:24:08.317Z,1011.79
2017-11-14T05:24:48.898Z,1011.74
2017-11-14T05:25:29.477Z,1011.78
2017-11-14T05:26:10.033Z,1011.8
2017-11-14T05:26:50.582Z,1011.81
2017-11-14T05:27:31.179Z,1011.78
2017-11-14T05:28:11.684Z,1011.76
2017-11-14T05:28:52.280Z,1011.8
2017-11-14T05:29:32.838Z,1011.81
2017-11-14T05:30:13.382Z,1011.79
2017-11-14T05:30:53.956Z,1011.78
2017-11-14T05:31:34.532Z,1011.86
2017-11-14T05:32:15.054Z,1011.85
2017-11-14T05:32:55.687Z,1011.84
2017-11-14T05:33:36.242Z,1011.88
2017-11-14T05:34:16.904Z,1011.86
2017-11-14T05:34:57.367Z,1011.9
2017-11-14T05:35:37.915Z,1011.89
2017-11-14T05:36:18.478Z,1011.89
2017-11-14T05:36:59.037Z,1011.9
2017-11-14T05:37:39.585Z,1011.85
2017-11-14T05:38:20.324Z,1011.86
2017-11-14T05:39:00.668Z,1011.91
2017-11-14T05:39:41.241Z,1011.92
2017-11-14T05:40:22.083Z,1011.9
2017-11-14T05:41:02.634Z,1011.93
2017-11-14T05:41:43.174Z,1011.97
2017-11-14T05:42:23.704Z,1011.92
2017-11-14T05:43:04.223Z,1011.96
2017-11-14T05:43:44.768Z,1011.97
2017-11-14T05:44:25.513Z,1011.98
2017-11-14T05:45:05.961Z,1011.97
2017-11-14T05:45:46.502Z,1011.97
2017-11-14T05:46:27.055Z,1011.98
2017-11-14T05:47:07.621Z,1011.96
2017-11-14T05:47:48.139Z,1011.98
2017-11-14T05:48:28.720Z,1012.02
2017-11-14T05:49:09.238Z,1011.97
2017-11-14T05:49:49.886Z,1011.98
2017-11-14T05:50:30.340Z,1012
2017-11-14T05:51:10.899Z,1012.02
2017-11-14T05:51:51.592Z,1012.02
2017-11-14T05:52:32.132Z,1012.06
2017-11-14T05:53:12.801Z,1012.07
2017-11-14T05:53:53.342Z,1012.07
2017-11-14T05:54:33.865Z,1012.08
2017-11-14T05:55:14.413Z,1012.08
2017-11-14T05:55:55.535Z,1012.14
2017-11-14T05:56:36.038Z,1012.1
2017-11-14T05:57:16.611Z,1012.14
2017-11-14T05:57:57.142Z,1012.15
2017-11-14T05:58:37.697Z,1012.15
2017-11-14T05:59:18.220Z,1012.15
2017-11-14T05:59:58.764Z,1012.16
2017-11-14T06:00:39.308Z,1012.15
2017-11-14T06:01:19.860Z,1012.15
2017-11-14T06:02:00.438Z,1012.18
2017-11-14T06:02:40.978Z,1012.18
2017-11-14T06:03:21.530Z,1012.19
2017-11-14T06:04:02.105Z,1012.19
2017-11-14T06:04:42.631Z,1012.22
2017-11-14T06:05:23.201Z,1012.26
2017-11-14T06:06:03.772Z,1012.22
2017-11-14T06:06:44.286Z,1012.24
2017-11-14T06:07:24.818Z,1012.27
2017-11-14T06:08:05.388Z,1012.26
2017-11-14T06:08:45.970Z,1012.24
2017-11-14T06:09:26.598Z,1012.31
2017-11-14T06:10:07.113Z,1012.31
2017-11-14T06:10:47.701Z,1012.29
2017-11-14T06:11:28.261Z,1012.3
2017-11-14T06:12:08.815Z,1012.29
2017-11-14T06:12:49.351Z,1012.34
2017-11-14T06:13:30.014Z,1012.29
2017-11-14T06:14:10.565Z,1012.3
2017-11-14T06:14:51.108Z,1012.36
2017-11-14T06:15:31.743Z,1012.38
2017-11-14T06:16:12.229Z,1012.45
2017-11-14T06:16:52.793Z,1012.41
2017-11-14T06:17:33.343Z,1012.42
2017-11-14T06:18:13.865Z,1012.46
2017-11-14T06:18:54.470Z,1012.41
2017-11-14T06:19:35.044Z,1012.43
2017-11-14T06:20:15.541Z,1012.44
2017-11-14T06:20:56.072Z,1012.38
2017-11-14T06:21:36.647Z,1012.42
2017-11-14T06:22:17.291Z,1012.43
2017-11-14T06:22:57.744Z,1012.41
2017-11-14T06:23:38.335Z,1012.42
2017-11-14T06:24:18.885Z,1012.43
2017-11-14T06:24:59.410Z,1012.42
2017-11-14T06:25:40.020Z,1012.45
2017-11-14T06:26:20.493Z,1012.45
2017-11-14T06:27:01.139Z,1012.46
2017-11-14T06:27:41.554Z,1012.43
2017-11-14T06:28:22.085Z,1012.42
2017-11-14T06:29:02.763Z,1012.46
2017-11-14T06:29:43.382Z,1012.46
2017-11-14T06:30:24.058Z,1012.43
2017-11-14T06:31:04.477Z,1012.48
2017-11-14T06:31:45.046Z,1012.48
2017-11-14T06:32:27.970Z,1012.54
2017-11-14T06:33:06.683Z,1012.49
2017-11-14T06:33:47.171Z,1012.54
2017-11-14T06:34:27.805Z,1012.56
2017-11-14T06:35:08.421Z,1012.52
2017-11-14T06:35:48.981Z,1012.57
2017-11-14T06:36:29.573Z,1012.59
2017-11-14T06:37:10.083Z,1012.56
2017-11-14T06:37:50.764Z,1012.54
2017-11-14T06:38:31.577Z,1012.55
2017-11-14T06:39:12.110Z,1012.56
2017-11-14T06:39:53.164Z,1012.6
2017-11-14T06:40:33.671Z,1012.51
2017-11-14T06:41:14.226Z,1012.52
2017-11-14T06:41:54.764Z,1012.55
2017-11-14T06:42:35.383Z,1012.54
2017-11-14T06:43:15.907Z,1012.55
2017-11-14T06:43:56.457Z,1012.57
2017-11-14T06:44:37.007Z,1012.59
2017-11-14T06:45:17.557Z,1012.57
2017-11-14T06:45:58.078Z,1012.59
2017-11-14T06:46:38.658Z,1012.62
2017-11-14T06:47:20.164Z,1012.55
2017-11-14T06:48:00.782Z,1012.57
2017-11-14T06:48:41.324Z,1012.58
2017-11-14T06:49:21.883Z,1012.66
2017-11-14T06:50:02.420Z,1012.61
2017-11-14T06:50:42.969Z,1012.64
2017-11-14T06:51:23.516Z,1012.69
2017-11-14T06:52:04.110Z,1012.69
2017-11-14T06:52:44.656Z,1012.68
2017-11-14T06:53:25.256Z,1012.69
2017-11-14T06:54:05.808Z,1012.66
2017-11-14T06:54:46.358Z,1012.65
2017-11-14T06:55:26.908Z,1012.62
2017-11-14T06:56:07.435Z,1012.67
2017-11-14T06:56:47.998Z,1012.68
2017-11-14T06:57:28.522Z,1012.68
2017-11-14T06:58:09.057Z,1012.65
2017-11-14T06:58:49.591Z,1012.69
2017-11-14T06:59:30.165Z,1012.69
2017-11-14T07:00:10.780Z,1012.73
2017-11-14T07:00:51.325Z,1012.77
2017-11-14T07:01:31.862Z,1012.7
2017-11-14T07:02:12.384Z,1012.75
2017-11-14T07:02:52.960Z,1012.73
2017-11-14T07:03:33.530Z,1012.73
2017-11-14T07:04:14.081Z,1012.78
2017-11-14T07:04:54.663Z,1012.76
2017-11-14T07:05:35.339Z,1012.79
2017-11-14T07:06:15.868Z,1012.82
2017-11-14T07:06:56.441Z,1012.8
2017-11-14T07:07:36.970Z,1012.81
2017-11-14T07:08:17.499Z,1012.81
2017-11-14T07:08:58.023Z,1012.86
2017-11-14T07:09:38.548Z,1012.84
2017-11-14T07:10:19.176Z,1012.86
2017-11-14T07:10:59.774Z,1012.88
2017-11-14T07:11:40.587Z,1012.85
2017-11-14T07:12:21.157Z,1012.88
2017-11-14T07:13:01.640Z,1012.91
2017-11-14T07:13:42.183Z,1012.86
2017-11-14T07:14:22.721Z,1012.86
2017-11-14T07:15:03.272Z,1012.89
2017-11-14T07:15:43.782Z,1012.85
2017-11-14T07:16:24.303Z,1012.92
2017-11-14T07:17:04.852Z,1012.91
2017-11-14T07:17:45.461Z,1012.94
2017-11-14T07:18:25.935Z,1012.94
2017-11-14T07:19:06.414Z,1012.97
2017-11-14T07:19:46.954Z,1012.96
2017-11-14T07:20:27.537Z,1012.96
2017-11-14T07:21:08.108Z,1012.96
2017-11-14T07:21:48.665Z,1012.91
2017-11-14T07:22:29.600Z,1012.93
2017-11-14T07:23:10.193Z,1012.98
2017-11-14T07:23:50.815Z,1012.93
2017-11-14T07:24:31.335Z,1012.98
2017-11-14T07:25:11.906Z,1012.95
2017-11-14T07:25:52.397Z,1012.98
2017-11-14T07:26:33.093Z,1013.02
2017-11-14T07:27:13.690Z,1013.05
2017-11-14T07:27:54.190Z,1013.01
2017-11-14T07:28:34.744Z,1013.01
2017-11-14T07:29:15.361Z,1013.05
2017-11-14T07:29:56.047Z,1013.03
2017-11-14T07:30:36.575Z,1012.99
2017-11-14T07:31:17.127Z,1013.02
2017-11-14T07:31:57.662Z,1013
2017-11-14T07:32:38.195Z,1013.06
2017-11-14T07:33:18.757Z,1013.01
2017-11-14T07:33:59.263Z,1013.01
2017-11-14T07:34:39.904Z,1013.02
2017-11-14T07:35:20.396Z,1013.08
2017-11-14T07:36:01.129Z,1013.1
2017-11-14T07:36:41.671Z,1013.1
2017-11-14T07:37:22.222Z,1013.1
2017-11-14T07:38:02.824Z,1013.1
2017-11-14T07:38:43.400Z,1013.13
2017-11-14T07:39:24.041Z,1013.08
2017-11-14T07:40:04.434Z,1013.13
2017-11-14T07:40:44.954Z,1013.05
2017-11-14T07:41:25.478Z,1013.09
2017-11-14T07:42:06.049Z,1013.14
2017-11-14T07:42:46.698Z,1013.05
2017-11-14T07:43:27.324Z,1013.08
2017-11-14T07:44:07.833Z,1013.09
2017-11-14T07:44:48.394Z,1013.14
2017-11-14T07:45:28.895Z,1013.12
2017-11-14T07:46:09.475Z,1013.1
2017-11-14T07:46:50.017Z,1013.12
2017-11-14T07:47:30.480Z,1013.1
2017-11-14T07:48:11.130Z,1013.14
2017-11-14T07:48:51.664Z,1013.12
2017-11-14T07:49:32.306Z,1013.1
2017-11-14T07:50:12.981Z,1013.1
2017-11-14T07:50:53.574Z,1013.09
2017-11-14T07:51:34.292Z,1013.1
2017-11-14T07:52:14.816Z,1013.12
2017-11-14T07:52:55.585Z,1013.1
2017-11-14T07:53:36.351Z,1013.13
2017-11-14T07:54:17.234Z,1013.2
2017-11-14T07:54:57.827Z,1013.16
2017-11-14T07:55:38.379Z,1013.19
2017-11-14T07:56:18.927Z,1013.2
2017-11-14T07:56:59.434Z,1013.18
2017-11-14T07:57:39.955Z,1013.16
2017-11-14T07:58:20.729Z,1013.16
2017-11-14T07:59:01.105Z,1013.14
2017-11-14T07:59:41.773Z,1013.22
2017-11-14T08:00:22.370Z,1013.18
2017-11-14T08:01:02.909Z,1013.22
2017-11-14T08:01:43.490Z,1013.24
2017-11-14T08:02:24.047Z,1013.23
2017-11-14T08:03:04.654Z,1013.28
2017-11-14T08:03:45.437Z,1013.23
2017-11-14T08:04:26.025Z,1013.28
2017-11-14T08:05:06.567Z,1013.3
2017-11-14T08:05:47.129Z,1013.25
2017-11-14T08:06:27.848Z,1013.25
2017-11-14T08:07:08.401Z,1013.24
2017-11-14T08:07:48.978Z,1013.24
2017-11-14T08:08:29.549Z,1013.23
2017-11-14T08:09:10.032Z,1013.21
2017-11-14T08:09:50.593Z,1013.21
2017-11-14T08:10:31.156Z,1013.22
2017-11-14T08:11:11.769Z,1013.23
2017-11-14T08:11:52.248Z,1013.27
2017-11-14T08:12:32.842Z,1013.23
2017-11-14T08:13:13.387Z,1013.25
2017-11-14T08:13:53.934Z,1013.28